Time;durP1;ratioP1;P1;durP2;ratioP2;P2;SDS_P1;SDS_P2;PMS_P1;PMS_P2;Temp;Humidity;BMP_temperature;BMP_pressure;BME280_temperature;BME280_humidity;BME280_pressure;Samples;Min_cycle;Max_cycle;Signal;HPM_P1;HPM_P2
2021/03/09 00:00:39;;;;;;;5.47;2.92;;;;;;;0.32;63.25;97898.59;1644725;87;21187;-63
2021/03/09 00:03:09;;;;;;;4.25;3.08;;;;;;;0.31;65.91;97907.98;1644684;87;21207;-63
2021/03/09 00:05:38;;;;;;;6.30;3.30;;;;;;;0.31;63.68;97903.36;1644743;87;21214;-63
2021/03/09 00:08:07;;;;;;;7.53;3.87;;;;;;;0.34;64.56;97906.57;1644651;87;21204;-63
2021/03/09 00:10:35;;;;;;;5.78;4.33;;;;;;;0.35;65.36;97905.64;1644737;87;21168;-63
2021/03/09 00:13:03;;;;;;;5.17;2.77;;;;;;;0.33;65.52;97902.81;1644807;87;21190;-63
2021/03/09 00:15:31;;;;;;;5.30;3.77;;;;;;;0.26;66.77;97903.59;1644802;87;21192;-63
2021/03/09 00:17:59;;;;;;;6.17;3.20;;;;;;;0.27;66.60;97900.59;1644676;87;21200;-62
2021/03/09 00:20:28;;;;;;;6.92;4.17;;;;;;;0.28;65.43;97897.11;1644663;87;21636;-62
2021/03/09 00:22:56;;;;;;;3.72;3.33;;;;;;;0.24;66.70;97893.89;1645018;87;21627;-63
2021/03/09 00:25:24;;;;;;;5.50;3.08;;;;;;;0.23;65.78;97899.93;1644827;87;21194;-63
2021/03/09 00:27:53;;;;;;;3.70;2.95;;;;;;;0.27;63.92;97894.20;1644812;87;21608;-62
2021/03/09 00:30:21;;;;;;;3.60;2.58;;;;;;;0.30;64.74;97897.87;1620934;87;22340;-62
2021/03/09 00:32:49;;;;;;;5.58;3.35;;;;;;;0.29;63.34;97892.38;1610025;88;21204;-61
2021/03/09 00:35:18;;;;;;;5.95;2.87;;;;;;;0.31;63.57;97893.94;1584144;90;21194;-61
2021/03/09 00:37:49;;;;;;;6.92;3.98;;;;;;;0.30;64.98;97892.76;1585410;90;21213;-62
2021/03/09 00:40:17;;;;;;;4.37;2.75;;;;;;;0.32;63.91;97894.77;1609870;87;21597;-62
2021/03/09 00:42:46;;;;;;;7.35;4.17;;;;;;;0.29;63.28;97885.55;1583871;90;21203;-61
2021/03/09 00:45:15;;;;;;;6.12;4.08;;;;;;;0.30;64.92;97882.09;1585402;90;21620;-63
2021/03/09 00:47:44;;;;;;;5.35;4.30;;;;;;;0.29;64.57;97881.72;1610404;88;21180;-63
2021/03/09 00:50:34;;;;;;;4.65;3.40;;;;;;;0.29;65.56;97884.27;1583866;90;21182;-63
2021/03/09 00:53:02;;;;;;;5.92;3.20;;;;;;;0.29;64.43;97882.99;1602895;89;21237;-62
2021/03/09 00:55:30;;;;;;;5.55;3.45;;;;;;;0.29;64.77;97885.55;1605489;89;21183;-62
2021/03/09 00:58:01;;;;;;;4.05;3.00;;;;;;;0.31;63.82;97883.72;1603140;89;21196;-63
2021/03/09 01:00:31;;;;;;;4.62;2.90;;;;;;;0.35;62.85;97886.48;1605443;89;21603;-66
2021/03/09 01:03:00;;;;;;;7.15;3.77;;;;;;;0.31;65.40;97879.09;1603028;89;21197;-62
2021/03/09 01:05:28;;;;;;;2.85;2.25;;;;;;;0.35;62.92;97881.86;1605480;89;21191;-62
2021/03/09 01:07:56;;;;;;;2.33;1.70;;;;;;;0.33;65.64;97881.92;1602845;89;21641;-63
2021/03/09 01:10:25;;;;;;;5.10;2.70;;;;;;;0.35;65.26;97883.93;1605722;89;21238;-62
2021/03/09 01:12:53;;;;;;;4.85;3.20;;;;;;;0.39;63.43;97886.69;1630070;87;21192;-63
2021/03/09 01:15:21;;;;;;;2.27;1.98;;;;;;;0.35;65.68;97883.93;1629943;87;21185;-64
2021/03/09 01:17:49;;;;;;;6.37;2.58;;;;;;;0.33;65.33;97878.09;1630413;88;21192;-62
2021/03/09 01:20:17;;;;;;;3.45;2.40;;;;;;;0.37;64.71;97881.30;1630079;87;21180;-63
2021/03/09 01:22:46;;;;;;;3.08;2.12;;;;;;;0.40;63.26;97882.41;1629995;88;21145;-63
2021/03/09 01:25:14;;;;;;;3.60;2.85;;;;;;;0.41;63.92;97885.34;1630054;87;21212;-63
2021/03/09 01:27:42;;;;;;;4.05;3.50;;;;;;;0.40;64.69;97881.13;1630152;88;21598;-63
2021/03/09 01:30:13;;;;;;;4.78;2.83;;;;;;;0.38;64.72;97881.23;1630243;88;21184;-65
2021/03/09 01:32:41;;;;;;;10.00;3.10;;;;;;;0.39;64.47;97883.31;1630108;88;21224;-65
2021/03/09 01:35:11;;;;;;;4.12;2.08;;;;;;;0.38;61.33;97885.06;1630122;87;21624;-62
2021/03/09 01:37:39;;;;;;;6.25;3.02;;;;;;;0.36;64.17;97875.81;1629953;87;21578;-65
2021/03/09 01:40:11;;;;;;;2.65;2.05;;;;;;;0.41;61.82;97871.30;1630199;87;21177;-62
2021/03/09 01:42:44;;;;;;;4.92;2.02;;;;;;;0.40;60.35;97867.91;1630240;87;21192;-62
2021/03/09 01:45:13;;;;;;;9.15;3.60;;;;;;;0.38;63.60;97877.85;1630125;88;21212;-60
2021/03/09 01:47:44;;;;;;;4.20;3.20;;;;;;;0.35;65.08;97873.71;1629949;87;21196;-61
2021/03/09 01:50:17;;;;;;;4.03;1.77;;;;;;;0.33;64.59;97874.27;1630371;88;21200;-60
2021/03/09 01:52:48;;;;;;;3.65;2.45;;;;;;;0.27;65.00;97869.46;1630494;87;21471;-61
2021/03/09 01:55:16;;;;;;;2.77;2.20;;;;;;;0.28;63.26;97873.67;1630316;87;21205;-60
2021/03/09 01:57:56;;;;;;;2.98;2.05;;;;;;;0.30;60.76;97868.50;1629623;87;21200;-61
2021/03/09 02:00:24;;;;;;;5.78;3.90;;;;;;;0.29;60.51;97874.50;1630347;87;21213;-61
2021/03/09 02:02:54;;;;;;;5.10;2.90;;;;;;;0.29;61.12;97872.78;1630576;87;21593;-61
2021/03/09 02:05:22;;;;;;;4.62;2.77;;;;;;;0.26;61.57;97867.84;1630124;88;21192;-61
2021/03/09 02:07:50;;;;;;;3.37;2.17;;;;;;;0.18;62.76;97867.42;1630035;88;21176;-61
2021/03/09 02:10:18;;;;;;;5.05;3.17;;;;;;;0.18;62.76;97867.42;1630136;87;21219;-62
2021/03/09 02:13:14;;;;;;;2.98;2.65;;;;;;;0.18;64.54;97876.35;1630227;88;21205;-61
2021/03/09 02:16:44;;;;;;;2.40;1.98;;;;;;;0.18;64.54;97876.35;1630180;87;21645;-63
2021/03/09 02:19:50;;;;;;;5.00;3.12;;;;;;;0.13;64.55;97878.77;1630197;87;21585;-63
2021/03/09 02:22:32;;;;;;;5.20;2.17;;;;;;;0.00;64.50;97872.22;1630138;87;21636;-63
2021/03/09 02:25:33;;;;;;;3.15;2.50;;;;;;;-0.02;64.83;97874.02;1630187;87;21197;-62
2021/03/09 02:28:32;;;;;;;2.58;2.37;;;;;;;-0.12;64.90;97858.34;1630253;87;21238;-63
2021/03/09 02:31:00;;;;;;;3.40;2.20;;;;;;;-0.12;63.91;97865.20;1618451;88;21153;-63
2021/03/09 02:33:43;;;;;;;5.72;2.02;;;;;;;-0.12;63.91;97865.20;1634783;87;21580;-63
2021/03/09 02:36:16;;;;;;;4.03;2.80;;;;;;;-0.09;63.98;97867.14;1634707;87;21200;-63
2021/03/09 02:39:12;;;;;;;5.80;3.08;;;;;;;-0.08;63.57;97871.80;1635083;87;21584;-66
2021/03/09 02:41:47;;;;;;;4.40;2.08;;;;;;;-0.10;63.96;97873.14;1622917;88;21173;-62
2021/03/09 02:44:41;;;;;;;4.97;3.50;;;;;;;-0.10;63.96;97873.14;1630227;87;21221;-63
2021/03/09 02:47:13;;;;;;;3.42;3.05;;;;;;;-0.11;63.90;97871.92;1639895;86;21199;-62
2021/03/09 02:49:43;;;;;;;4.10;2.52;;;;;;;-0.11;63.36;97880.41;1630293;87;21188;-62
2021/03/09 02:52:40;;;;;;;3.37;2.35;;;;;;;-0.19;64.33;97881.25;1630176;87;21187;-62
2021/03/09 02:55:31;;;;;;;3.10;2.58;;;;;;;-0.26;64.51;97886.30;1569010;91;21171;-62
2021/03/09 02:58:01;;;;;;;4.30;2.77;;;;;;;-0.36;66.27;97880.48;1604447;89;21191;-62
2021/03/09 03:00:30;;;;;;;2.27;1.75;;;;;;;-0.40;65.42;97890.47;1604286;89;21211;-61
2021/03/09 03:03:00;;;;;;;3.37;1.98;;;;;;;-0.43;65.27;97889.34;1604538;89;21235;-61
2021/03/09 03:05:28;;;;;;;4.25;2.10;;;;;;;-0.47;66.16;97897.13;1604569;89;21189;-61
2021/03/09 03:07:56;;;;;;;4.65;2.98;;;;;;;-0.47;66.16;97897.13;1604365;89;21733;-61
2021/03/09 03:10:27;;;;;;;9.98;2.92;;;;;;;-0.49;65.68;97901.50;1604437;89;21214;-61
2021/03/09 03:12:57;;;;;;;3.37;2.52;;;;;;;-0.50;64.23;97904.94;1604594;89;21694;-63
2021/03/09 03:15:25;;;;;;;4.65;2.62;;;;;;;-0.57;64.58;97907.42;1604573;89;21206;-63
2021/03/09 03:17:56;;;;;;;4.65;2.83;;;;;;;-0.57;64.58;97907.42;1604776;89;21241;-66
2021/03/09 03:20:25;;;;;;;3.60;2.37;;;;;;;-0.55;65.38;97912.02;1605030;89;21210;-67
2021/03/09 03:22:55;;;;;;;3.85;2.60;;;;;;;-0.54;63.85;97920.47;1604570;89;21249;-63
2021/03/09 03:25:27;;;;;;;4.08;2.42;;;;;;;-0.60;65.92;97916.52;1605018;89;21224;-62
2021/03/09 03:27:56;;;;;;;3.60;1.82;;;;;;;-0.64;66.59;97915.45;1604822;89;21199;-67
2021/03/09 03:30:27;;;;;;;3.05;2.75;;;;;;;-0.63;64.72;97916.67;1605019;89;21167;-61
2021/03/09 03:32:55;;;;;;;2.50;1.98;;;;;;;-0.62;64.06;97914.47;1604947;89;21159;-63
2021/03/09 03:35:25;;;;;;;5.50;2.83;;;;;;;-0.62;64.96;97924.67;1604866;89;21642;-62
2021/03/09 03:37:54;;;;;;;3.22;2.12;;;;;;;-0.63;65.00;97923.48;1604895;89;21652;-65
2021/03/09 03:40:24;;;;;;;6.05;2.08;;;;;;;-0.65;64.76;97922.28;1604633;89;21207;-60
2021/03/09 03:42:52;;;;;;;3.87;2.15;;;;;;;-0.66;64.87;97929.55;1604593;89;21207;-61
2021/03/09 03:45:22;;;;;;;11.93;2.55;;;;;;;-0.73;66.04;97929.47;1604276;89;21579;-61
2021/03/09 03:47:57;;;;;;;2.90;2.37;;;;;;;-0.73;66.04;97929.47;1604278;89;21218;-61
2021/03/09 03:50:27;;;;;;;6.10;3.67;;;;;;;-0.78;65.99;97930.16;1579820;89;21218;-61
2021/03/09 03:53:02;;;;;;;2.30;1.27;;;;;;;-0.88;66.12;97934.48;1579698;89;21198;-63
2021/03/09 03:56:16;;;;;;;13.45;3.75;;;;;;;-0.92;65.24;97926.59;1604433;89;21595;-65
2021/03/09 03:59:15;;;;;;;7.83;2.22;;;;;;;-0.97;65.10;97930.63;1604457;89;21647;-63
2021/03/09 04:01:44;;;;;;;2.58;1.45;;;;;;;-1.05;65.50;97934.02;1617595;89;21171;-62
2021/03/09 04:04:15;;;;;;;3.15;1.95;;;;;;;-1.07;65.76;97934.53;1582818;89;21236;-63
2021/03/09 04:06:53;;;;;;;3.90;2.87;;;;;;;-1.08;65.30;97932.42;1583016;89;21184;-63
2021/03/09 04:09:23;;;;;;;3.20;2.52;;;;;;;-1.10;64.81;97928.31;1582928;89;21279;-62
2021/03/09 04:11:53;;;;;;;4.40;1.62;;;;;;;-1.00;63.75;97941.81;1582932;89;21216;-62
2021/03/09 04:14:22;;;;;;;2.30;1.40;;;;;;;-0.95;63.43;97939.05;1582654;89;21243;-65
2021/03/09 04:16:53;;;;;;;1.25;1.15;;;;;;;-1.01;62.81;97935.50;1582735;89;21212;-64
2021/03/09 04:19:24;;;;;;;1.12;1.02;;;;;;;-1.01;62.81;97935.50;1582850;89;21240;-62
2021/03/09 04:21:55;;;;;;;2.33;1.72;;;;;;;-0.94;62.54;97947.08;1582699;89;21235;-62
2021/03/09 04:24:25;;;;;;;1.95;1.62;;;;;;;-0.92;62.14;97942.72;1582858;90;21640;-64
2021/03/09 04:26:54;;;;;;;3.08;2.50;;;;;;;-0.91;61.91;97946.10;1582967;89;21271;-62
2021/03/09 04:29:22;;;;;;;1.75;1.17;;;;;;;-0.88;61.56;97948.50;1583021;89;21778;-64
2021/03/09 04:31:51;;;;;;;3.58;2.30;;;;;;;-0.88;61.56;97948.50;1582934;89;21212;-62
2021/03/09 04:34:20;;;;;;;1.70;1.15;;;;;;;-0.94;61.84;97953.45;1583041;89;21235;-67
2021/03/09 04:36:48;;;;;;;2.00;1.75;;;;;;;-0.93;61.42;97947.44;1582635;89;21208;-65
2021/03/09 04:39:17;;;;;;;3.08;2.67;;;;;;;-0.84;61.25;97953.83;1582738;89;21255;-63
2021/03/09 04:41:46;;;;;;;5.37;2.12;;;;;;;-0.84;61.25;97953.83;1582989;89;21192;-66
2021/03/09 04:44:14;;;;;;;3.22;2.42;;;;;;;-0.82;62.19;97956.70;1582973;89;21204;-63
2021/03/09 04:46:43;;;;;;;8.65;2.65;;;;;;;-0.81;61.99;97956.23;1582681;89;21228;-63
2021/03/09 04:49:19;;;;;;;9.73;3.20;;;;;;;-0.81;61.83;97954.50;1557323;89;21224;-63
2021/03/09 04:51:48;;;;;;;4.58;2.50;;;;;;;-0.80;61.97;97956.61;1582792;89;21192;-62
2021/03/09 04:54:16;;;;;;;3.37;2.95;;;;;;;-0.84;61.88;97954.66;1582777;89;21239;-62
2021/03/09 04:56:45;;;;;;;3.05;2.42;;;;;;;-0.80;62.11;97962.54;1574280;89;21187;-62
2021/03/09 04:59:13;;;;;;;3.87;2.10;;;;;;;-0.78;62.14;97963.75;1559342;90;21588;-65
2021/03/09 05:01:41;;;;;;;2.85;2.45;;;;;;;-0.76;62.58;97964.49;1559367;90;21260;-64
2021/03/09 05:04:10;;;;;;;5.60;3.45;;;;;;;-0.77;62.17;97961.56;1584220;90;21181;-64
2021/03/09 05:06:38;;;;;;;4.40;2.47;;;;;;;-0.75;62.18;97964.43;1584352;90;21224;-63
2021/03/09 05:09:07;;;;;;;4.45;2.12;;;;;;;-0.79;61.78;97961.65;1584427;90;21200;-63
2021/03/09 05:11:47;;;;;;;2.87;2.50;;;;;;;-0.73;61.33;97969.44;1642970;86;21202;-63
2021/03/09 05:14:16;;;;;;;5.40;2.42;;;;;;;-0.72;60.68;97968.11;1645450;87;21203;-63
2021/03/09 05:16:44;;;;;;;4.65;3.00;;;;;;;-0.69;60.49;97973.05;1645362;87;21316;-66
2021/03/09 05:19:13;;;;;;;2.70;1.80;;;;;;;-0.66;59.72;97973.37;1645758;87;21786;-64
2021/03/09 05:21:41;;;;;;;3.80;2.33;;;;;;;-0.64;59.48;97976.22;1645572;86;21215;-64
2021/03/09 05:26:52;;;;;;;2.80;2.20;;;;;;;-0.59;59.83;97983.65;1676186;85;21171;-64
2021/03/09 05:29:21;;;;;;;3.95;1.75;;;;;;;-0.58;58.54;97987.83;1697687;84;21230;-63
2021/03/09 05:31:49;;;;;;;4.12;3.15;;;;;;;-0.50;59.61;97993.39;1693847;84;21180;-63
2021/03/09 05:34:17;;;;;;;2.55;1.62;;;;;;;-0.50;59.61;97993.39;1692195;85;21213;-63
2021/03/09 05:36:46;;;;;;;3.25;2.25;;;;;;;-0.40;60.07;97995.06;1692202;85;21219;-64
2021/03/09 05:39:15;;;;;;;5.12;1.57;;;;;;;-0.40;60.07;97995.06;1692205;85;21156;-65
2021/03/09 05:41:43;;;;;;;3.87;2.42;;;;;;;-0.35;62.40;97995.20;1692209;85;21601;-64
2021/03/09 05:44:11;;;;;;;4.15;2.67;;;;;;;-0.16;62.66;98003.63;1692174;84;21228;-64
2021/03/09 05:46:39;;;;;;;2.33;2.08;;;;;;;-0.16;62.66;98003.63;1692215;84;21216;-64
2021/03/09 05:49:09;;;;;;;14.65;2.50;;;;;;;-0.06;62.33;98000.16;1692497;84;21585;-65
2021/03/09 05:51:39;;;;;;;2.70;2.00;;;;;;;0.14;60.69;97996.61;1690101;84;21171;-66
2021/03/09 05:54:07;;;;;;;3.35;2.47;;;;;;;0.14;60.69;97996.61;1692361;84;21163;-69
2021/03/09 05:56:35;;;;;;;4.80;2.92;;;;;;;0.29;59.72;98008.14;1692389;85;21223;-62
2021/03/09 05:59:03;;;;;;;5.05;3.02;;;;;;;0.36;59.67;98009.47;1692309;85;21638;-63
2021/03/09 06:01:32;;;;;;;7.30;3.20;;;;;;;0.43;58.36;98006.14;1692133;85;21238;-64
2021/03/09 06:04:00;;;;;;;4.65;3.12;;;;;;;0.50;58.27;98010.50;1694876;83;21195;-63
2021/03/09 06:06:31;;;;;;;6.97;3.60;;;;;;;0.54;58.82;98012.00;1673924;85;21628;-63
2021/03/09 06:09:01;;;;;;;28.98;14.13;;;;;;;0.57;58.56;98019.50;1706586;84;21182;-64
2021/03/09 06:11:28;;;;;;;10.08;6.20;;;;;;;0.61;58.63;98020.54;1709919;84;21155;-63
2021/03/09 06:13:58;;;;;;;13.00;8.05;;;;;;;0.57;58.72;98020.33;1710102;84;21170;-64
2021/03/09 06:16:32;;;;;;;19.82;4.95;;;;;;;0.60;58.28;98023.99;1709955;84;21178;-63
2021/03/09 06:19:00;;;;;;;7.00;3.00;;;;;;;0.62;58.18;98022.65;1710077;84;21711;-63
2021/03/09 06:21:31;;;;;;;3.58;2.90;;;;;;;0.50;58.19;98024.55;1710078;83;21168;-63
2021/03/09 06:24:40;;;;;;;4.37;2.70;;;;;;;0.59;57.88;98030.00;1710782;84;21227;-65
2021/03/09 06:27:27;;;;;;;4.15;2.72;;;;;;;0.65;57.36;98036.53;1697856;84;21161;-63
2021/03/09 06:29:57;;;;;;;7.92;2.65;;;;;;;0.78;57.03;98028.13;1709912;84;21352;-63
2021/03/09 06:32:27;;;;;;;2.65;1.75;;;;;;;0.85;56.60;98032.48;1714359;83;21603;-64
2021/03/09 06:34:55;;;;;;;3.27;2.60;;;;;;;0.72;57.80;98041.70;1686236;84;21206;-63
2021/03/09 06:37:27;;;;;;;3.60;2.17;;;;;;;0.71;57.67;98040.87;1710574;84;21163;-64
2021/03/09 06:40:06;;;;;;;3.50;2.62;;;;;;;0.74;55.82;98047.09;1710149;84;21213;-68
2021/03/09 06:42:37;;;;;;;4.35;2.65;;;;;;;0.89;55.11;98045.48;1708303;84;21196;-63
2021/03/09 06:45:12;;;;;;;4.67;2.22;;;;;;;1.04;54.86;98044.66;1706687;84;21220;-62
2021/03/09 06:47:44;;;;;;;3.20;2.15;;;;;;;1.07;52.76;98041.11;1706032;84;21157;-66
2021/03/09 06:50:18;;;;;;;4.10;1.50;;;;;;;1.21;53.48;98047.57;1699658;84;21129;-64
2021/03/09 06:53:27;;;;;;;3.83;1.65;;;;;;;1.40;53.09;98056.73;1704111;83;21161;-63
2021/03/09 06:55:55;;;;;;;2.20;1.62;;;;;;;1.50;53.42;98061.35;1692592;84;21149;-63
2021/03/09 06:58:31;;;;;;;5.03;1.12;;;;;;;1.73;52.15;98050.66;1689044;84;21184;-63
2021/03/09 07:01:35;;;;;;;7.08;1.50;;;;;;;1.87;51.63;98049.41;1678892;84;21187;-63
2021/03/09 07:04:08;;;;;;;19.17;10.28;;;;;;;2.04;51.85;98049.30;1640227;86;21156;-63
2021/03/09 07:06:45;;;;;;;10.53;6.03;;;;;;;2.23;49.80;98051.16;1628565;87;21198;-65
2021/03/09 07:09:14;;;;;;;8.28;2.92;;;;;;;2.32;48.00;98057.49;1650724;87;21183;-64
2021/03/09 07:11:44;;;;;;;2.92;1.52;;;;;;;2.36;47.85;98057.23;1621540;87;21212;-64
2021/03/09 07:14:15;;;;;;;3.10;1.95;;;;;;;2.48;48.42;98049.73;1650979;87;21771;-64
2021/03/09 07:16:50;;;;;;;2.60;1.37;;;;;;;2.61;47.79;98053.20;1621555;87;21232;-65
2021/03/09 07:19:26;;;;;;;1.70;1.60;;;;;;;2.67;47.00;98054.96;1651041;85;21228;-65
2021/03/09 07:21:55;;;;;;;;;;;;;;;2.75;47.15;98051.94;1648345;87;21204;-65
2021/03/09 07:24:25;;;;;;;2.35;1.75;;;;;;;2.61;45.77;98046.34;1646023;86;20151;-65
2021/03/09 07:26:57;;;;;;;3.90;1.45;;;;;;;2.62;46.69;98052.30;1646459;86;21164;-70
2021/03/09 07:29:28;;;;;;;3.17;1.65;;;;;;;2.61;46.25;98054.48;1651064;86;21199;-64
2021/03/09 07:31:58;;;;;;;11.40;3.05;;;;;;;2.61;47.07;98047.62;1646236;86;21205;-64
2021/03/09 07:34:30;;;;;;;3.62;2.20;;;;;;;2.66;45.89;98046.89;1655046;85;21556;-65
2021/03/09 07:36:59;;;;;;;4.50;2.50;;;;;;;2.45;45.67;98048.19;1649030;86;21183;-67
2021/03/09 07:39:28;;;;;;;1.60;1.17;;;;;;;2.66;46.74;98049.45;1628556;87;21217;-64
2021/03/09 07:41:57;;;;;;;8.60;2.02;;;;;;;2.82;46.48;98040.39;1652420;87;21672;-64
2021/03/09 07:44:25;;;;;;;7.83;1.85;;;;;;;3.04;46.01;98036.05;1649426;87;21193;-63
2021/03/09 07:46:54;;;;;;;2.90;1.70;;;;;;;3.16;45.55;98045.09;1652618;85;21197;-65
2021/03/09 07:49:21;;;;;;;2.37;1.62;;;;;;;3.23;45.03;98041.23;1649983;87;21281;-64
2021/03/09 07:52:16;;;;;;;3.08;1.80;;;;;;;3.32;44.96;98039.84;1652450;85;21197;-65
2021/03/09 07:55:05;;;;;;;4.03;1.75;;;;;;;3.33;44.20;98034.62;1649293;86;21232;-64
2021/03/09 07:57:34;;;;;;;5.03;2.15;;;;;;;3.14;43.37;98033.30;1649369;85;21634;-64
2021/03/09 08:00:29;;;;;;;2.75;1.65;;;;;;;3.41;44.43;98032.03;1652095;86;21189;-65
2021/03/09 08:02:58;;;;;;;6.92;2.62;;;;;;;3.44;42.90;98025.41;1656975;85;21151;-66
2021/03/09 08:05:29;;;;;;;2.80;1.95;;;;;;;3.26;43.13;98015.85;1682064;85;21242;-64
2021/03/09 08:08:03;;;;;;;2.65;1.90;;;;;;;3.12;41.84;98019.27;1682119;85;21580;-64
2021/03/09 08:10:37;;;;;;;2.52;2.05;;;;;;;2.94;41.88;98021.69;1682291;85;21615;-63
2021/03/09 08:13:15;;;;;;;5.45;2.30;;;;;;;3.28;42.42;98016.11;1682393;85;21195;-63
2021/03/09 08:15:43;;;;;;;2.30;1.30;;;;;;;3.41;41.57;98019.19;1682200;85;21208;-64
2021/03/09 08:18:40;;;;;;;3.05;1.20;;;;;;;3.60;36.41;98016.64;1682170;85;21175;-65
2021/03/09 08:21:08;;;;;;;2.60;1.60;;;;;;;3.50;36.04;98016.05;1684563;84;21185;-65
2021/03/09 08:23:52;;;;;;;1.32;1.10;;;;;;;3.39;34.73;98013.31;1679097;84;21594;-65
2021/03/09 08:26:25;;;;;;;3.60;0.80;;;;;;;3.52;35.99;98013.73;1648859;86;21155;-64
2021/03/09 08:28:53;;;;;;;2.65;1.27;;;;;;;3.77;33.67;98009.94;1676208;84;21231;-65
2021/03/09 08:31:27;;;;;;;0.80;0.68;;;;;;;3.87;33.28;98005.05;1676448;84;21193;-64
2021/03/09 08:34:17;;;;;;;3.52;0.70;;;;;;;3.91;33.89;97995.39;1729961;82;21182;-64
2021/03/09 08:36:46;;;;;;;3.45;0.88;;;;;;;4.14;33.03;97987.81;1685433;84;21210;-65
2021/03/09 08:39:16;;;;;;;22.85;11.57;;;;;;;4.32;34.03;97992.16;1729804;82;21143;-64
2021/03/09 08:41:50;;;;;;;16.42;7.75;;;;;;;4.41;35.92;97984.30;1737623;82;21462;-64
2021/03/09 08:44:21;;;;;;;8.05;2.33;;;;;;;4.31;34.51;97987.97;1738129;82;21247;-65
2021/03/09 08:47:10;;;;;;;2.12;0.85;;;;;;;4.45;34.94;97994.73;1763175;80;21558;-66
2021/03/09 08:49:46;;;;;;;2.17;1.30;;;;;;;4.40;34.05;97996.81;1763623;81;21405;-65
2021/03/09 08:52:22;;;;;;;1.05;0.68;;;;;;;4.52;33.16;97987.78;1763792;81;21224;-64
2021/03/09 08:54:51;;;;;;;1.50;1.25;;;;;;;4.71;35.53;97980.91;1763772;81;21169;-64
2021/03/09 08:57:25;;;;;;;1.50;1.10;;;;;;;4.81;33.95;97978.54;1763814;81;21193;-67
2021/03/09 08:59:58;;;;;;;1.25;1.10;;;;;;;4.65;32.15;97979.60;1763467;81;21157;-65
2021/03/09 09:02:57;;;;;;;1.42;0.90;;;;;;;5.14;34.39;97969.73;1779906;79;22868;-63
2021/03/09 09:05:30;;;;;;;1.00;0.90;;;;;;;5.31;34.90;97971.11;1742440;82;21612;-65
2021/03/09 09:07:59;;;;;;;1.57;1.00;;;;;;;5.80;32.46;97969.19;1742632;82;21137;-64
2021/03/09 09:10:27;;;;;;;4.62;1.37;;;;;;;6.11;32.86;97967.30;1742554;82;21286;-64
2021/03/09 09:12:56;;;;;;;2.05;1.10;;;;;;;5.98;31.42;97972.20;1742567;82;21715;-64
2021/03/09 09:15:29;;;;;;;2.65;1.37;;;;;;;6.57;33.28;97972.41;1742550;82;21306;-66
2021/03/09 09:18:06;;;;;;;2.92;1.27;;;;;;;7.13;34.06;97967.15;1742706;82;21172;-64
2021/03/09 09:20:43;;;;;;;11.45;4.80;;;;;;;7.68;33.76;97964.02;1742024;82;21290;-65
2021/03/09 09:23:19;;;;;;;6.08;2.27;;;;;;;7.85;30.62;97953.97;1742450;82;21200;-64
2021/03/09 09:25:52;;;;;;;3.80;1.60;;;;;;;8.24;30.58;97951.61;1742687;82;21204;-65
2021/03/09 09:28:29;;;;;;;2.12;1.20;;;;;;;8.75;30.11;97953.70;1741417;82;21354;-65
2021/03/09 09:31:04;;;;;;;3.00;1.50;;;;;;;8.94;28.60;97961.53;1741392;82;21184;-64
2021/03/09 09:33:33;;;;;;;;;;;;;;;9.58;27.75;97958.46;1741740;82;21184;-64
2021/03/09 09:36:02;;;;;;;2.45;1.65;;;;;;;9.90;27.65;97949.09;1741365;82;20194;-64
2021/03/09 09:38:32;;;;;;;1.77;1.17;;;;;;;10.31;26.04;97950.05;1741472;82;21617;-64
2021/03/09 09:41:01;;;;;;;2.67;1.72;;;;;;;10.34;25.38;97948.97;1741220;82;21224;-64
2021/03/09 09:43:33;;;;;;;5.25;1.50;;;;;;;10.17;24.91;97946.62;1741322;82;21718;-65
2021/03/09 09:46:06;;;;;;;2.87;1.32;;;;;;;10.82;26.40;97945.69;1741759;82;21196;-65
2021/03/09 09:48:39;;;;;;;2.52;1.00;;;;;;;11.18;23.72;97933.58;1741696;82;21286;-65
2021/03/09 09:51:17;;;;;;;2.27;1.32;;;;;;;12.02;26.96;97929.30;1742164;82;21208;-64
2021/03/09 09:54:11;;;;;;;3.33;1.57;;;;;;;12.48;23.46;97928.93;1742051;82;21168;-65
2021/03/09 09:56:39;;;;;;;3.65;1.57;;;;;;;12.34;21.78;97926.40;1688885;84;21622;-64
2021/03/09 09:59:08;;;;;;;3.60;1.90;;;;;;;10.88;23.59;97933.91;1688977;84;21246;-65
2021/03/09 10:01:41;;;;;;;4.72;1.95;;;;;;;10.94;23.51;97932.84;1689061;84;21603;-64
2021/03/09 10:04:32;;;;;;;2.80;1.45;;;;;;;11.53;22.91;97931.48;1689095;84;21139;-64
2021/03/09 10:07:06;;;;;;;3.80;1.82;;;;;;;11.81;22.15;97929.16;1725684;83;21222;-65
2021/03/09 10:09:34;;;;;;;3.67;1.87;;;;;;;10.15;24.09;97930.39;1724166;83;21206;-65
2021/03/09 10:12:05;;;;;;;2.92;1.95;;;;;;;11.38;23.12;97923.39;1725638;83;21136;-65
2021/03/09 10:14:40;;;;;;;3.20;1.80;;;;;;;12.10;21.92;97917.65;1725228;83;21584;-66
2021/03/09 10:17:14;;;;;;;4.15;1.75;;;;;;;12.27;21.73;97918.88;1694506;84;21158;-65
2021/03/09 10:19:43;;;;;;;3.42;2.10;;;;;;;12.51;21.32;97914.77;1725605;83;21212;-65
2021/03/09 10:22:20;;;;;;;5.00;1.80;;;;;;;12.41;21.22;97909.69;1725295;83;21170;-63
2021/03/09 10:24:48;;;;;;;3.62;2.17;;;;;;;12.75;21.04;97909.19;1713310;84;21191;-66
2021/03/09 10:27:22;;;;;;;3.87;1.90;;;;;;;12.85;20.71;97904.64;1725333;83;21191;-64
2021/03/09 10:29:57;;;;;;;2.40;1.70;;;;;;;12.85;21.22;97906.43;1713449;83;21274;-66
2021/03/09 10:32:24;;;;;;;3.08;1.90;;;;;;;12.80;20.67;97899.08;1674240;84;21179;-66
2021/03/09 10:34:55;;;;;;;4.35;1.98;;;;;;;12.73;21.12;97901.17;1764349;81;21638;-66
2021/03/09 10:37:40;;;;;;;8.18;1.98;;;;;;;13.25;20.42;97895.32;1764232;81;21125;-66
2021/03/09 10:40:14;;;;;;;3.70;2.25;;;;;;;13.74;20.09;97891.75;1764443;81;21535;-66
2021/03/09 10:42:50;;;;;;;3.45;2.72;;;;;;;13.37;20.16;97898.43;1764239;81;21142;-67
2021/03/09 10:45:23;;;;;;;3.60;2.00;;;;;;;12.20;21.31;97898.34;1764434;81;21193;-66
2021/03/09 10:48:17;;;;;;;3.08;1.75;;;;;;;12.44;21.38;97896.83;1764302;81;21590;-66
2021/03/09 10:50:45;;;;;;;5.20;2.20;;;;;;;11.91;21.58;97895.21;1764399;81;21603;-65
2021/03/09 10:53:13;;;;;;;3.80;2.20;;;;;;;12.88;20.81;97893.59;1764532;81;21620;-65
2021/03/09 10:55:41;;;;;;;5.75;2.27;;;;;;;11.93;21.78;97892.47;1764488;81;21584;-65
2021/03/09 10:58:09;;;;;;;4.37;2.02;;;;;;;11.31;23.05;97890.34;1764621;81;21218;-66
2021/03/09 11:00:37;;;;;;;5.42;3.02;;;;;;;10.96;23.20;97887.23;1764402;81;21171;-65
2021/03/09 11:03:06;;;;;;;4.70;3.70;;;;;;;10.74;24.03;97891.52;1762668;81;21168;-64
2021/03/09 11:05:35;;;;;;;3.47;2.42;;;;;;;9.44;25.66;97891.02;1762185;81;21600;-64
2021/03/09 11:08:03;;;;;;;8.53;2.35;;;;;;;9.98;24.61;97889.08;1762056;81;21132;-64
2021/03/09 11:10:31;;;;;;;4.08;2.30;;;;;;;10.51;24.24;97886.38;1762194;81;21618;-64
2021/03/09 11:12:59;;;;;;;4.42;2.05;;;;;;;10.18;24.36;97883.86;1762060;81;21163;-65
2021/03/09 11:15:27;;;;;;;2.85;1.82;;;;;;;10.38;24.25;97880.23;1762042;81;21187;-65
2021/03/09 11:17:55;;;;;;;4.25;2.00;;;;;;;9.78;24.82;97881.00;1762193;81;21163;-63
2021/03/09 11:20:24;;;;;;;7.03;2.10;;;;;;;9.48;25.49;97884.59;1762052;81;22421;-65
2021/03/09 11:22:52;;;;;;;3.95;2.08;;;;;;;9.61;24.97;97877.02;1762128;81;21132;-64
2021/03/09 11:25:22;;;;;;;4.53;2.12;;;;;;;9.29;25.59;97872.13;1762016;81;21618;-64
2021/03/09 11:27:50;;;;;;;3.33;1.75;;;;;;;8.38;26.56;97868.02;1762177;81;21193;-64
2021/03/09 11:32:59;;;;;;;3.50;2.22;;;;;;;9.30;25.88;97856.92;1762858;81;21107;-64
2021/03/09 11:35:28;;;;;;;4.00;2.37;;;;;;;9.89;24.95;97852.78;1762914;81;21193;-64
2021/03/09 11:37:55;;;;;;;3.12;1.72;;;;;;;10.17;24.47;97851.91;1730903;83;21553;-64
2021/03/09 11:40:23;;;;;;;5.58;2.37;;;;;;;10.45;24.36;97850.97;1763017;80;21626;-64
2021/03/09 11:42:51;;;;;;;9.43;4.83;;;;;;;9.92;24.91;97849.92;1730910;83;21584;-64
2021/03/09 11:45:19;;;;;;;10.13;2.33;;;;;;;9.17;25.86;97855.08;1762934;81;21587;-64
2021/03/09 11:47:48;;;;;;;4.35;2.08;;;;;;;9.61;25.74;97850.59;1762606;81;21252;-63
2021/03/09 11:50:16;;;;;;;3.37;1.80;;;;;;;9.46;25.60;97851.98;1762593;81;21147;-63
2021/03/09 11:52:44;;;;;;;5.05;2.95;;;;;;;9.82;25.06;97844.75;1762993;81;21209;-64
2021/03/09 11:55:34;;;;;;;4.08;2.17;;;;;;;9.01;25.94;97840.07;1731057;83;21707;-64
2021/03/09 11:58:02;;;;;;;2.85;1.42;;;;;;;9.74;25.80;97843.34;1646594;86;21688;-63
2021/03/09 12:00:30;;;;;;;5.85;1.55;;;;;;;9.83;24.69;97842.98;1618507;89;21177;-64
2021/03/09 12:02:58;;;;;;;8.50;4.28;;;;;;;10.01;24.69;97837.38;1673887;84;21269;-63
2021/03/09 12:05:27;;;;;;;3.77;2.17;;;;;;;9.70;25.69;97833.38;1645829;86;21182;-65
2021/03/09 12:07:55;;;;;;;7.45;2.50;;;;;;;9.22;25.96;97826.99;1673776;84;21140;-63
2021/03/09 12:10:24;;;;;;;3.12;1.90;;;;;;;9.29;26.00;97826.78;1674057;85;21204;-63